Terminal Aerodrome Forecast
Issued by NWS Wakefield, VA

Home | Current Version | Previous Version | Text Only | Print | Product List | Glossary On
Versions: 1 2 3 4 5 6 7 8 9 10 11 12 13
191
FTUS41 KAKQ 212330
TAFSBY
TAF
KSBY 212330Z 2200/2224 24005KT P6SM SCT100 SCT250
     FM221600 25008KT P6SM SCT050=

USA.gov is the U.S. government's official web portal to all federal, state and local government web resources and services.